| time (UTC) | temp C | wind direction | speed KPH | gust KPH | rain 1hr cm | rain 24hr cm | rain mn cm | humidity % | barometer mb |
| 20260507054556 | 11 | 246 | 0.0 | 6.4 | 0.00 | 1.42 | 1.32 | 63 | 1013.4 |
| 20260507053122 | 11 | 267 | 0.0 | 4.8 | 0.00 | 1.42 | 1.32 | 64 | 1013.4 |
| 20260507051555 | 11 | 285 | 0.0 | 9.7 | 0.00 | 1.42 | 1.32 | 64 | 1013.5 |
| 20260507050050 | 11 | 243 | 0.0 | 1.6 | 0.00 | 1.42 | 1.32 | 65 | 1013.5 |
| 20260507044601 | 11 | 263 | 0.0 | 4.8 | 0.00 | 1.42 | 1.32 | 66 | 1013.7 |
| 20260507043051 | 11 | 285 | 0.0 | 3.2 | 0.00 | 1.42 | 1.32 | 66 | 1013.5 |
| 20260507041551 | 12 | 272 | 1.6 | 9.7 | 0.00 | 1.42 | 1.32 | 65 | 1013.4 |
| 20260507040047 | 12 | 279 | 0.0 | 9.7 | 0.00 | 1.42 | 1.32 | 66 | 1013.4 |
| 20260507034546 | 12 | 295 | 3.2 | 11.3 | 0.00 | 1.42 | 1.32 | 64 | 1013.5 |
| 20260507033058 | 12 | 275 | 3.2 | 9.7 | 0.00 | 1.42 | 1.32 | 64 | 1013.6 |
| 20260507031555 | 12 | 260 | 3.2 | 6.4 | 0.00 | 1.42 | 1.32 | 63 | 1013.6 |
| 20260507030100 | 12 | 252 | 0.0 | 9.7 | 0.00 | 1.42 | 1.32 | 64 | 1013.5 |
| 20260507024559 | 12 | 268 | 3.2 | 6.4 | 0.00 | 1.42 | 1.32 | 63 | 1013.3 |
| 20260507023035 | 12 | 300 | 3.2 | 11.3 | 0.00 | 1.42 | 1.32 | 64 | 1013.4 |
| 20260507021536 | 13 | 326 | 6.4 | 14.5 | 0.00 | 1.42 | 1.32 | 63 | 1013.0 |
| 20260507020030 | 13 | 276 | 4.8 | 14.5 | 0.00 | 1.42 | 1.32 | 65 | 1012.6 |
| 20260507014540 | 13 | 312 | 6.4 | 16.1 | 0.00 | 1.42 | 1.32 | 66 | 1012.6 |
| 20260507013035 | 13 | 300 | 8.0 | 16.1 | 0.00 | 1.42 | 1.32 | 69 | 1012.4 |
| 20260507011532 | 13 | 239 | 0.0 | 0.0 | 0.00 | 1.42 | 1.32 | 73 | 1012.2 |
| 20260507010022 | 13 | 239 | 0.0 | 0.0 | 0.00 | 1.42 | 1.32 | 73 | 1011.7 |
| 20260507004520 | 13 | 239 | 0.0 | 0.0 | 0.00 | 1.42 | 1.32 | 76 | 1011.3 |
| 20260507003019 | 13 | 270 | 0.0 | 0.0 | 0.00 | 1.42 | 1.32 | 78 | 1011.3 |
| 20260507001525 | 14 | 270 | 0.0 | 0.0 | 0.00 | 1.42 | 1.32 | 74 | 1011.2 |
| 20260507000015 | 14 | 270 | 0.0 | 0.0 | 0.00 | 1.42 | 1.32 | 75 | 1011.0 |
| 20260506234514 | 14 | 270 | 0.0 | 0.0 | 0.00 | 1.42 | 1.32 | 75 | 1010.9 |
| 20260506233015 | 15 | 270 | 0.0 | 0.0 | 0.00 | 1.42 | 1.32 | 74 | 1010.6 |
| 20260506231513 | 15 | 270 | 0.0 | 0.0 | 0.00 | 1.42 | 1.32 | 68 | 1011.3 |
| 20260506230010 | 15 | 270 | 0.0 | 0.0 | 0.00 | 1.42 | 1.32 | 67 | 1011.0 |
| 20260506224510 | 15 | 270 | 0.0 | 3.2 | 0.00 | 1.42 | 1.32 | 66 | 1011.2 |
| 20260506223015 | 15 | 272 | 0.0 | 3.2 | 0.00 | 1.42 | 1.32 | 68 | 1011.2 |
| 20260506221508 | 15 | 270 | 0.0 | 4.8 | 0.00 | 1.42 | 1.32 | 67 | 1011.2 |
| 20260506220004 | 16 | 316 | 0.0 | 8.0 | 0.00 | 1.42 | 1.32 | 66 | 1010.9 |
| 20260506214503 | 15 | 276 | 1.6 | 8.0 | 0.00 | 1.42 | 1.32 | 67 | 1010.5 |
| 20260506213002 | 15 | 279 | 1.6 | 6.4 | 0.00 | 1.42 | 1.32 | 69 | 1010.5 |
| 20260506211501 | 15 | 278 | 3.2 | 8.0 | 0.00 | 1.42 | 1.32 | 68 | 1010.7 |
| 20260506210058 | 15 | 324 | 1.6 | 8.0 | 0.00 | 1.42 | 1.32 | 69 | 1010.5 |
| 20260506204600 | 16 | 279 | 0.0 | 6.4 | 0.00 | 1.42 | 1.32 | 68 | 1010.4 |
| 20260506203055 | 16 | 296 | 3.2 | 8.0 | 0.00 | 1.42 | 1.32 | 69 | 1010.2 |
| 20260506201556 | 15 | 270 | 0.0 | 9.7 | 0.00 | 1.42 | 1.32 | 69 | 1010.0 |
| 20260506200051 | 15 | 285 | 4.8 | 11.3 | 0.00 | 1.42 | 1.32 | 70 | 1010.2 |
| 20260506194549 | 15 | 287 | 1.6 | 4.8 | 0.00 | 1.42 | 1.32 | 73 | 1010.1 |
| 20260506193046 | 15 | 253 | 0.0 | 4.8 | 0.00 | 1.42 | 1.32 | 74 | 1010.2 |
| 20260506191547 | 15 | 306 | 4.8 | 11.3 | 0.00 | 1.42 | 1.32 | 75 | 1010.2 |
| 20260506190044 | 14 | 263 | 6.4 | 14.5 | 0.00 | 1.42 | 1.32 | 76 | 1010.3 |
| 20260506184548 | 14 | 298 | 6.4 | 12.9 | 0.00 | 1.42 | 1.32 | 76 | 1010.3 |
| 20260506183041 | 14 | 347 | 3.2 | 9.7 | 0.00 | 1.42 | 1.32 | 78 | 1010.3 |
| 20260506181540 | 14 | 21 | 6.4 | 14.5 | 0.00 | 1.42 | 1.32 | 78 | 1010.3 |
| 20260506180037 | 13 | 296 | 4.8 | 9.7 | 0.00 | 1.42 | 1.32 | 80 | 1010.4 |
| 20260506174536 | 13 | 341 | 8.0 | 14.5 | 0.00 | 1.42 | 1.32 | 82 | 1010.4 |
| 20260506173042 | 13 | 332 | 3.2 | 9.7 | 0.00 | 1.42 | 1.32 | 90 | 1010.6 |
| 20260506171532 | 12 | 292 | 3.2 | 16.1 | 0.00 | 1.42 | 1.32 | 96 | 1010.4 |
| 20260506170034 | 11 | 292 | 3.2 | 9.7 | 0.00 | 1.42 | 1.32 | 97 | 1010.5 |
| 20260506164501 | 11 | 259 | 0.0 | 11.3 | 0.00 | 1.42 | 1.32 | 97 | 1010.6 |
| 20260506163107 | 10 | 298 | 4.8 | 16.1 | 0.00 | 1.42 | 1.32 | 97 | 1010.6 |
| 20260506161634 | 10 | 303 | 6.4 | 12.9 | 0.00 | 1.42 | 1.32 | 97 | 1010.7 |
| 20260506160103 | 10 | 336 | 6.4 | 14.5 | 0.00 | 1.42 | 1.32 | 98 | 1010.5 |
| 20260506154554 | 10 | 329 | 9.7 | 17.7 | 0.00 | 1.42 | 1.32 | 97 | 1010.1 |
| 20260506153056 | 10 | 276 | 3.2 | 16.1 | 0.00 | 1.42 | 1.32 | 98 | 1009.8 |
| 20260506151540 | 10 | 289 | 4.8 | 9.7 | 0.00 | 1.42 | 1.32 | 98 | 1009.4 |
| 20260506150037 | 9 | 260 | 0.0 | 11.3 | 0.00 | 1.42 | 1.32 | 97 | 1009.4 |
| 20260506144539 | 9 | 284 | 4.8 | 12.9 | 0.03 | 1.42 | 1.32 | 97 | 1008.9 |
| 20260506141532 | 9 | 266 | 4.8 | 16.1 | 0.08 | 1.42 | 1.32 | 97 | 1008.8 |
| 20260506140028 | 10 | 282 | 3.2 | 24.1 | 0.08 | 1.42 | 1.32 | 97 | 1008.5 |
| 20260506134524 | 10 | 303 | 11.3 | 22.5 | 0.05 | 1.42 | 1.30 | 96 | 1007.9 |
| 20260506131528 | 14 | 269 | 4.8 | 17.7 | 0.00 | 1.37 | 1.24 | 98 | 1006.6 |
| 20260506130016 | 14 | 227 | 0.0 | 6.4 | 0.00 | 1.37 | 1.24 | 98 | 1006.4 |
| 20260506124515 | 14 | 235 | 0.0 | 4.8 | 0.00 | 1.37 | 1.24 | 98 | 1006.2 |
| 20260506121522 | 14 | 232 | 0.0 | 0.0 | 0.03 | 1.37 | 1.24 | 98 | 1005.8 |
| 20260506120021 | 13 | 189 | 0.0 | 0.0 | 0.03 | 1.37 | 1.24 | 98 | 1005.6 |
| 20260506114520 | 13 | 251 | 0.0 | 0.0 | 0.03 | 1.37 | 1.24 | 98 | 1005.9 |
| 20260506113019 | 13 | 251 | 0.0 | 8.0 | 0.05 | 1.37 | 1.24 | 97 | 1005.5 |
| 20260506111516 | 13 | 152 | 3.2 | 6.4 | 0.08 | 1.35 | 1.22 | 97 | 1005.4 |
| 20260506110020 | 13 | 196 | 4.8 | 9.7 | 0.15 | 1.35 | 1.22 | 97 | 1005.4 |
| 20260506104514 | 13 | 167 | 3.2 | 9.7 | 0.20 | 1.35 | 1.22 | 97 | 1005.0 |
| 20260506103014 | 13 | 202 | 1.6 | 9.7 | 0.20 | 1.32 | 1.19 | 97 | 1005.1 |
| 20260506101553 | 13 | 177 | 3.2 | 8.0 | 0.20 | 1.27 | 1.14 | 97 | 1005.0 |
| 20260506100100 | 13 | 234 | 0.0 | 0.0 | 0.15 | 1.19 | 1.07 | 97 | 1005.2 |
| 20260506094538 | 13 | 234 | 0.0 | 0.0 | 0.20 | 1.14 | 1.02 | 97 | 1005.5 |
| 20260506093043 | 13 | 234 | 0.0 | 0.0 | 0.23 | 1.12 | 0.99 | 97 | 1005.5 |
| 20260506091538 | 13 | 234 | 0.0 | 0.0 | 0.28 | 1.07 | 0.94 | 97 | 1005.4 |
| 20260506090035 | 13 | 234 | 0.0 | 0.0 | 0.41 | 1.04 | 0.91 | 96 | 1005.4 |
| 20260506084505 | 13 | 234 | 0.0 | 0.0 | 0.51 | 0.94 | 0.81 | 96 | 1005.6 |
| 20260506083004 | 13 | 234 | 0.0 | 0.0 | 0.64 | 0.89 | 0.76 | 95 | 1005.6 |
| 20260506081601 | 13 | 191 | 1.6 | 8.0 | 0.69 | 0.79 | 0.66 | 95 | 1005.5 |
| 20260506073049 | 15 | 215 | 1.6 | 22.5 | 0.23 | 0.25 | 0.13 | 89 | 1006.2 |
| 20260506071544 | 15 | 229 | 1.6 | 9.7 | 0.08 | 0.10 | 0.10 | 87 | 1005.5 |
| 20260506061535 | 15 | 205 | 0.0 | 0.0 | 0.00 | 0.03 | 0.03 | 91 | 1005.1 |